Antares — DFJQ — position and weather

sailwx.info

Track history (hours):
 
Tides and Currents Weather Stations Pressure Air Temp Water Temp Dewpoint Dewpoint Depression Visibility Wind Speed Wind Dir Waves Ship Positions

Antares

Last reported at 2014-Oct-31 06:26 UTC. Time now 2014-Oct-31 07:05 UTC.
Position N 51°53' E 004°18'.

Length 79 m; draft 5.8 m.

Type: Ship. MMSI: 218777000.

Date/timePositionNaut miles runAvg speedWind from/ knotsBaromVisibWave heightAir tempDewpointWater temp
2014-Oct-31 06:26N 51°53' E 004°18'0 0.0
2014-Oct-31 05:32N 51°53' E 004°18'0 0.0
2014-Oct-31 04:29N 51°53' E 004°18'0 0.0
2014-Oct-31 03:32N 51°53' E 004°18'0 0.0
2014-Oct-31 02:33N 51°53' E 004°18'2 2.0
2014-Oct-31 01:33N 51°55' E 004°15'8 7.6
2014-Oct-31 00:33N 51°59' E 004°05'6 5.9
2014-Oct-30 23:31N 51°55' E 004°13'0 0.0
2014-Oct-30 22:31N 51°55' E 004°13'0 0.0
2014-Oct-30 21:31N 51°55' E 004°13'0 0.0
2014-Oct-30 20:31N 51°55' E 004°13'0 0.0
2014-Oct-30 19:31N 51°55' E 004°13'0 0.0
2014-Oct-30 18:31N 51°55' E 004°13'0 0.0
2014-Oct-30 17:31N 51°55' E 004°13'0 0.0
2014-Oct-30 16:31N 51°55' E 004°13'0 0.0
2014-Oct-30 15:31N 51°55' E 004°13'0 0.0
2014-Oct-30 14:28N 51°55' E 004°13'0 0.0
2014-Oct-30 13:31N 51°55' E 004°13'0 0.0
2014-Oct-30 12:31N 51°55' E 004°13'0 0.0
2014-Oct-30 11:31N 51°55' E 004°13'0 0.2
2014-Oct-30 10:33N 51°55' E 004°13'8 8.2
2014-Oct-30 09:33N 51°59' E 004°02'9 9.4
2014-Oct-30 08:34N 52°03' E 003°47'9 9.3
2014-Oct-30 07:33N 52°12' E 003°46'9 9.0
2014-Oct-30 06:33N 52°21' E 003°48'9 8.9
2014-Oct-30 05:33N 52°30' E 003°50'9 9.4
2014-Oct-30 04:33N 52°39' E 003°53'9 9.0
2014-Oct-30 03:33N 52°48' E 003°56'9 9.2
2014-Oct-30 02:33N 52°57' E 003°60'9 9.2
2014-Oct-30 01:33N 53°02' E 004°11'21 9.6
2014-Oct-29 23:20N 53°20' E 004°32'810.4
2014-Oct-29 22:33N 53°27' E 004°37'10 9.8
2014-Oct-29 21:33N 53°31' E 004°52'10 9.7
2014-Oct-29 20:34N 53°35' E 005°07'1010.2
2014-Oct-29 19:33N 53°38' E 005°23'1111.3
2014-Oct-29 18:34N 53°42' E 005°41'1211.9
2014-Oct-29 17:34N 53°46' E 006°01'5510.9
2014-Oct-29 12:33N 53°60' E 007°30'10 9.6
2014-Oct-29 11:33N 54°01' E 007°46'10 9.6
2014-Oct-29 10:33N 54°01' E 008°03'9 9.5
2014-Oct-29 09:33N 54°00' E 008°19'1212.0
2014-Oct-29 08:33N 53°57' E 008°38'6 5.7
2014-Oct-29 07:33N 53°52' E 008°43'0 0.1
2014-Oct-29 06:33N 53°52' E 008°43'0 0.0
2014-Oct-29 05:33N 53°52' E 008°43'0 0.0
2014-Oct-29 04:30N 53°52' E 008°43'0 0.0
2014-Oct-29 03:33N 53°52' E 008°43'0 0.0
2014-Oct-29 02:33N 53°52' E 008°43'0 0.0
2014-Oct-29 01:33N 53°52' E 008°43'0 0.0
2014-Oct-29 00:33N 53°52' E 008°43'0 0.0
2014-Oct-28 23:33N 53°52' E 008°43'0 0.0
2014-Oct-28 22:30N 53°52' E 008°43'0 0.0
2014-Oct-28 21:33N 53°52' E 008°43'0 0.0
2014-Oct-28 20:33N 53°52' E 008°43'0 0.0
2014-Oct-28 19:33N 53°52' E 008°43'0 0.0
2014-Oct-28 18:33N 53°52' E 008°43'0 0.0
2014-Oct-28 17:33N 53°52' E 008°43'0 0.0
2014-Oct-28 16:33N 53°52' E 008°43'0 0.0
2014-Oct-28 15:33N 53°52' E 008°43'0 0.0
2014-Oct-28 14:33N 53°52' E 008°43'0 0.0
2014-Oct-28 13:33N 53°52' E 008°43'0 0.0
2014-Oct-28 12:33N 53°52' E 008°43'0 0.0
2014-Oct-28 11:33N 53°52' E 008°43'0 0.0
2014-Oct-28 10:33N 53°52' E 008°43'0 0.0
2014-Oct-28 09:33N 53°52' E 008°43'0 0.0
2014-Oct-28 08:33N 53°52' E 008°43'0 0.0
2014-Oct-28 07:33N 53°52' E 008°43'0 0.0
2014-Oct-28 06:33N 53°52' E 008°43'0 0.0
2014-Oct-28 05:30N 53°52' E 008°43'0 0.0
2014-Oct-28 04:33N 53°52' E 008°43'0 0.3
2014-Oct-28 03:33N 53°52' E 008°43'4 3.5
2014-Oct-28 02:33N 53°55' E 008°40'6 5.8
2014-Oct-28 01:33N 53°58' E 008°32'7 6.6
2014-Oct-28 00:33N 53°59' E 008°21'7 7.5
2014-Oct-27 23:33N 53°57' E 008°08'8 7.9
2014-Oct-27 22:34N 53°49' E 008°07'8 8.3
2014-Oct-27 21:33N 53°43' E 008°17'1111.2
2014-Oct-27 20:34N 53°36' E 008°31'4 4.2
2014-Oct-27 19:31N 53°32' E 008°35'0 0.0
2014-Oct-27 18:31N 53°32' E 008°35'0 0.0
2014-Oct-27 17:31N 53°32' E 008°35'0 0.0
2014-Oct-27 16:31N 53°32' E 008°35'0 0.5
2014-Oct-27 15:33N 53°32' E 008°35'0 0.0
2014-Oct-27 14:28N 53°32' E 008°35'0 0.0
2014-Oct-27 13:28N 53°32' E 008°35'0 0.0
2014-Oct-27 12:31N 53°32' E 008°35'0 0.0
2014-Oct-27 11:31N 53°32' E 008°35'0 0.0
2014-Oct-27 10:31N 53°32' E 008°35'0 0.0
2014-Oct-27 09:31N 53°32' E 008°35'0 0.0
2014-Oct-27 08:31N 53°32' E 008°35'0 0.0
2014-Oct-27 07:31N 53°32' E 008°35'0 0.0
2014-Oct-27 06:28N 53°32' E 008°35'0 0.0
2014-Oct-27 05:31N 53°32' E 008°35'0 0.0
2014-Oct-27 04:31N 53°32' E 008°35'0 0.0
2014-Oct-27 03:31N 53°32' E 008°35'0 0.0
2014-Oct-27 02:31N 53°32' E 008°35'0 0.0
2014-Oct-27 01:31N 53°32' E 008°35'0 0.0
2014-Oct-27 00:31N 53°32' E 008°35'0 0.0
2014-Oct-26 23:31N 53°32' E 008°35'0 0.0
2014-Oct-26 22:31N 53°32' E 008°35'0 0.0
2014-Oct-26 21:31N 53°32' E 008°35'0 0.0
2014-Oct-26 20:31N 53°32' E 008°35'0 0.0
2014-Oct-26 19:31N 53°32' E 008°35'0 0.0
2014-Oct-26 18:31N 53°32' E 008°35'0 0.0
2014-Oct-26 17:31N 53°32' E 008°35'0 0.0
2014-Oct-26 16:31N 53°32' E 008°35'0 0.0
2014-Oct-26 15:33N 53°32' E 008°35'1 0.9
2014-Oct-26 14:34N 53°32' E 008°34'4 4.5
2014-Oct-26 13:33N 53°36' E 008°30'7 7.4
2014-Oct-26 12:33N 53°41' E 008°21'1111.5
2014-Oct-26 11:33N 53°49' E 008°06'6 5.5
2014-Oct-26 10:33N 53°49' E 007°57'6 5.7
2014-Oct-26 09:31N 53°45' E 008°04'0 0.0
2014-Oct-26 08:31N 53°45' E 008°04'0 0.1
2014-Oct-26 07:31N 53°45' E 008°05'0 0.1
2014-Oct-26 06:31N 53°45' E 008°04'0 0.0
2014-Oct-26 05:31N 53°45' E 008°04'0 0.0
2014-Oct-26 04:28N 53°45' E 008°04'0 0.0
2014-Oct-26 03:31N 53°45' E 008°04'0 0.0
2014-Oct-26 02:31N 53°45' E 008°04'0 0.0
2014-Oct-26 01:31N 53°45' E 008°04'0 0.1
2014-Oct-26 00:31N 53°45' E 008°04'4 3.9
2014-Oct-25 23:34N 53°41' E 008°05'4 4.2
2014-Oct-25 22:32N 53°37' E 008°08'0 0.0
2014-Oct-25 21:32N 53°37' E 008°08'0 0.0
2014-Oct-25 20:32N 53°37' E 008°08'0 0.0
2014-Oct-25 19:32N 53°37' E 008°08'0 0.0
2014-Oct-25 18:32N 53°37' E 008°08'0 0.0
2014-Oct-25 17:32N 53°37' E 008°08'0 0.0
2014-Oct-25 16:32N 53°37' E 008°08'0 0.0
2014-Oct-25 15:26N 53°37' E 008°08'0 0.0
2014-Oct-25 14:32N 53°37' E 008°08'0 0.0
2014-Oct-25 13:29N 53°37' E 008°08'0 0.0
2014-Oct-25 12:33N 53°37' E 008°08'1 1.0
2014-Oct-25 11:33N 53°38' E 008°08'6 5.7
2014-Oct-25 10:33N 53°43' E 008°04'1111.2
2014-Oct-25 09:33N 53°53' E 007°55'9 8.9
2014-Oct-25 08:33N 54°00' E 008°03'9 8.7
2014-Oct-25 07:33N 54°00' E 008°18'1111.4
2014-Oct-25 06:33N 53°58' E 008°37'7 6.7
2014-Oct-25 05:33N 53°52' E 008°43'1 0.7
2014-Oct-25 04:31N 53°51' E 008°43'0 0.0
2014-Oct-25 03:31N 53°51' E 008°43'0 0.0
2014-Oct-25 02:31N 53°51' E 008°43'0 0.0
2014-Oct-25 01:31N 53°51' E 008°43'0 0.0
2014-Oct-25 00:31N 53°51' E 008°43'0 0.0
2014-Oct-24 23:28N 53°51' E 008°43'0 0.0
2014-Oct-24 22:31N 53°51' E 008°43'0 0.0
2014-Oct-24 21:31N 53°51' E 008°43'0 0.0
2014-Oct-24 20:28N 53°51' E 008°43'0 0.0
2014-Oct-24 19:28N 53°51' E 008°43'0 0.0
2014-Oct-24 18:31N 53°51' E 008°43'0 0.0
2014-Oct-24 17:31N 53°51' E 008°43'0 0.0
2014-Oct-24 16:31N 53°51' E 008°43'0 0.0
2014-Oct-24 15:28N 53°51' E 008°43'0 0.0
2014-Oct-24 14:31N 53°51' E 008°43'0 0.0
2014-Oct-24 13:31N 53°51' E 008°43'0 0.0
2014-Oct-24 12:31N 53°51' E 008°43'0 0.0
2014-Oct-24 11:31N 53°51' E 008°43'0 0.0
2014-Oct-24 10:31N 53°51' E 008°43'0 0.0
2014-Oct-24 09:31N 53°51' E 008°43'0 0.0
2014-Oct-24 08:28N 53°51' E 008°43'0 0.0
2014-Oct-24 07:31N 53°51' E 008°43'0 0.0
2014-Oct-24 06:31N 53°51' E 008°43'0 0.0
2014-Oct-24 05:31N 53°51' E 008°43'0 0.0
2014-Oct-24 04:31N 53°51' E 008°43'0 0.0
2014-Oct-24 03:31N 53°51' E 008°43'0 0.0
2014-Oct-24 02:31N 53°51' E 008°43'0 0.0
2014-Oct-24 01:28N 53°51' E 008°43'0 0.0
2014-Oct-24 00:28N 53°51' E 008°43'0 0.0
2014-Oct-23 23:31N 53°51' E 008°43'0 0.0
2014-Oct-23 22:28N 53°51' E 008°43'0 0.0
2014-Oct-23 21:31N 53°51' E 008°43'0 0.0
2014-Oct-23 20:31N 53°51' E 008°43'0 0.0
2014-Oct-23 19:31N 53°51' E 008°43'0 0.5
2014-Oct-23 18:32N 53°52' E 008°43'0 0.0
2014-Oct-23 17:32N 53°52' E 008°43'0 0.0
2014-Oct-23 16:32N 53°52' E 008°43'0 0.0
2014-Oct-23 15:29N 53°52' E 008°43'0 0.0
2014-Oct-23 14:29N 53°52' E 008°43'0 0.0
2014-Oct-23 13:32N 53°52' E 008°43'0 0.0
2014-Oct-23 12:32N 53°52' E 008°43'1 0.5
2014-Oct-23 11:29N 53°52' E 008°43'0 0.0
2014-Oct-23 10:32N 53°52' E 008°43'0 0.0
2014-Oct-23 09:29N 53°52' E 008°43'0 0.0
2014-Oct-23 08:26N 53°52' E 008°43'0 0.4
2014-Oct-23 07:33N 53°53' E 008°43'5 4.7
2014-Oct-23 06:34N 53°51' E 008°50'7 6.5
2014-Oct-23 05:33N 53°52' E 009°01'0 0.0
2014-Oct-23 04:33N 53°52' E 009°01'0 0.0
2014-Oct-23 03:33N 53°52' E 009°01'0 0.1
2014-Oct-23 02:33N 53°52' E 009°01'0 0.1
2014-Oct-23 01:33N 53°52' E 009°01'0 0.1
2014-Oct-23 00:33N 53°52' E 009°01'0 0.0
2014-Oct-22 23:33N 53°52' E 009°01'5 5.1
2014-Oct-22 22:33N 53°53' E 009°09'18 8.8
2014-Oct-22 20:32N 53°40' E 009°31'1111.1
2014-Oct-22 19:33N 53°34' E 009°45'8 7.4
2014-Oct-22 18:28N 53°30' E 009°57'0 0.0
2014-Oct-22 17:28N 53°30' E 009°57'0 0.0
2014-Oct-22 16:28N 53°30' E 009°57'0 0.0
2014-Oct-22 15:31N 53°30' E 009°57'0 0.0
2014-Oct-22 14:31N 53°30' E 009°57'0 0.0
2014-Oct-22 13:31N 53°30' E 009°57'0 0.0
2014-Oct-22 12:31N 53°30' E 009°57'2 2.5
2014-Oct-22 11:34N 53°32' E 009°56'1010.1
2014-Oct-22 10:33N 53°34' E 009°39'1111.0
2014-Oct-22 09:32N 53°43' E 009°28'6 5.7
2014-Oct-22 08:30N 53°48' E 009°23'1010.6
2014-Oct-22 07:33N 53°39' E 009°31'1111.1
2014-Oct-22 06:33N 53°34' E 009°47'7 6.9
2014-Oct-22 05:33N 53°30' E 009°57'0 0.0
2014-Oct-22 04:32N 53°30' E 009°57'0 0.0
2014-Oct-22 03:33N 53°30' E 009°57'0 0.0
2014-Oct-22 02:32N 53°30' E 009°57'0 0.4
2014-Oct-22 01:29N 53°30' E 009°58'0 0.0
2014-Oct-22 00:29N 53°30' E 009°58'0 0.0
2014-Oct-21 23:29N 53°30' E 009°58'0 0.0
2014-Oct-21 22:29N 53°30' E 009°58'0 0.0
2014-Oct-21 21:29N 53°30' E 009°58'0 0.0
2014-Oct-21 20:29N 53°30' E 009°58'0 0.0
2014-Oct-21 19:32N 53°30' E 009°58'1 0.8
2014-Oct-21 18:33N 53°31' E 009°57'9 8.6
2014-Oct-21 17:33N 53°34' E 009°43'9 8.6
2014-Oct-21 16:33N 53°39' E 009°31'8 8.0
2014-Oct-21 15:33N 53°45' E 009°24'8 7.7
2014-Oct-21 14:33N 53°52' E 009°17'9 8.6
2014-Oct-21 13:33N 53°52' E 009°02'10 9.7
2014-Oct-21 12:33N 53°51' E 008°46'2 2.1
2014-Oct-21 11:32N 53°52' E 008°43'0 0.0
2014-Oct-21 10:32N 53°52' E 008°43'0 0.0
2014-Oct-21 09:29N 53°52' E 008°43'0 0.0
2014-Oct-21 08:32N 53°52' E 008°43'0 0.0
2014-Oct-21 07:32N 53°52' E 008°43'0 0.0
2014-Oct-21 06:32N 53°52' E 008°43'  
Track history (hours):
 
Tides and Currents Weather Stations Pressure Air Temp Water Temp Dewpoint Dewpoint Depression Visibility Wind Speed Wind Dir Waves Ship Positions

Antares

Last reported at 2014-Oct-31 06:26 UTC. Time now 2014-Oct-31 07:05 UTC.
Position N 51°53' E 004°18'.

Length 79 m; draft 5.8 m.

Type: Ship. MMSI: 218777000.

Date/timePositionNaut miles runAvg speedWind from/ knotsBaromVisibWave heightAir tempDewpointWater temp
2014-Oct-31 06:26N 51°53' E 004°18'0 0.0
2014-Oct-31 05:32N 51°53' E 004°18'0 0.0
2014-Oct-31 04:29N 51°53' E 004°18'0 0.0
2014-Oct-31 03:32N 51°53' E 004°18'0 0.0
2014-Oct-31 02:33N 51°53' E 004°18'2 2.0
2014-Oct-31 01:33N 51°55' E 004°15'8 7.6
2014-Oct-31 00:33N 51°59' E 004°05'6 5.9
2014-Oct-30 23:31N 51°55' E 004°13'0 0.0
2014-Oct-30 22:31N 51°55' E 004°13'0 0.0
2014-Oct-30 21:31N 51°55' E 004°13'0 0.0
2014-Oct-30 20:31N 51°55' E 004°13'0 0.0
2014-Oct-30 19:31N 51°55' E 004°13'0 0.0
2014-Oct-30 18:31N 51°55' E 004°13'0 0.0
2014-Oct-30 17:31N 51°55' E 004°13'0 0.0
2014-Oct-30 16:31N 51°55' E 004°13'0 0.0
2014-Oct-30 15:31N 51°55' E 004°13'0 0.0
2014-Oct-30 14:28N 51°55' E 004°13'0 0.0
2014-Oct-30 13:31N 51°55' E 004°13'0 0.0
2014-Oct-30 12:31N 51°55' E 004°13'0 0.0
2014-Oct-30 11:31N 51°55' E 004°13'0 0.2
2014-Oct-30 10:33N 51°55' E 004°13'8 8.2
2014-Oct-30 09:33N 51°59' E 004°02'9 9.4
2014-Oct-30 08:34N 52°03' E 003°47'9 9.3
2014-Oct-30 07:33N 52°12' E 003°46'9 9.0
2014-Oct-30 06:33N 52°21' E 003°48'9 8.9
2014-Oct-30 05:33N 52°30' E 003°50'9 9.4
2014-Oct-30 04:33N 52°39' E 003°53'9 9.0
2014-Oct-30 03:33N 52°48' E 003°56'9 9.2
2014-Oct-30 02:33N 52°57' E 003°60'9 9.2
2014-Oct-30 01:33N 53°02' E 004°11'21 9.6
2014-Oct-29 23:20N 53°20' E 004°32'810.4
2014-Oct-29 22:33N 53°27' E 004°37'10 9.8
2014-Oct-29 21:33N 53°31' E 004°52'10 9.7
2014-Oct-29 20:34N 53°35' E 005°07'1010.2
2014-Oct-29 19:33N 53°38' E 005°23'1111.3
2014-Oct-29 18:34N 53°42' E 005°41'1211.9
2014-Oct-29 17:34N 53°46' E 006°01'5510.9
2014-Oct-29 12:33N 53°60' E 007°30'10 9.6
2014-Oct-29 11:33N 54°01' E 007°46'10 9.6
2014-Oct-29 10:33N 54°01' E 008°03'9 9.5
2014-Oct-29 09:33N 54°00' E 008°19'1212.0
2014-Oct-29 08:33N 53°57' E 008°38'6 5.7
2014-Oct-29 07:33N 53°52' E 008°43'0 0.1
2014-Oct-29 06:33N 53°52' E 008°43'0 0.0
2014-Oct-29 05:33N 53°52' E 008°43'0 0.0
2014-Oct-29 04:30N 53°52' E 008°43'0 0.0
2014-Oct-29 03:33N 53°52' E 008°43'0 0.0
2014-Oct-29 02:33N 53°52' E 008°43'0 0.0
2014-Oct-29 01:33N 53°52' E 008°43'0 0.0
2014-Oct-29 00:33N 53°52' E 008°43'0 0.0
2014-Oct-28 23:33N 53°52' E 008°43'0 0.0
2014-Oct-28 22:30N 53°52' E 008°43'0 0.0
2014-Oct-28 21:33N 53°52' E 008°43'0 0.0
2014-Oct-28 20:33N 53°52' E 008°43'0 0.0
2014-Oct-28 19:33N 53°52' E 008°43'0 0.0
2014-Oct-28 18:33N 53°52' E 008°43'0 0.0
2014-Oct-28 17:33N 53°52' E 008°43'0 0.0
2014-Oct-28 16:33N 53°52' E 008°43'0 0.0
2014-Oct-28 15:33N 53°52' E 008°43'0 0.0
2014-Oct-28 14:33N 53°52' E 008°43'0 0.0
2014-Oct-28 13:33N 53°52' E 008°43'0 0.0
2014-Oct-28 12:33N 53°52' E 008°43'0 0.0
2014-Oct-28 11:33N 53°52' E 008°43'0 0.0
2014-Oct-28 10:33N 53°52' E 008°43'0 0.0
2014-Oct-28 09:33N 53°52' E 008°43'0 0.0
2014-Oct-28 08:33N 53°52' E 008°43'0 0.0
2014-Oct-28 07:33N 53°52' E 008°43'0 0.0
2014-Oct-28 06:33N 53°52' E 008°43'0 0.0
2014-Oct-28 05:30N 53°52' E 008°43'0 0.0
2014-Oct-28 04:33N 53°52' E 008°43'0 0.3
2014-Oct-28 03:33N 53°52' E 008°43'4 3.5
2014-Oct-28 02:33N 53°55' E 008°40'6 5.8
2014-Oct-28 01:33N 53°58' E 008°32'7 6.6
2014-Oct-28 00:33N 53°59' E 008°21'7 7.5
2014-Oct-27 23:33N 53°57' E 008°08'8 7.9
2014-Oct-27 22:34N 53°49' E 008°07'8 8.3
2014-Oct-27 21:33N 53°43' E 008°17'1111.2
2014-Oct-27 20:34N 53°36' E 008°31'4 4.2
2014-Oct-27 19:31N 53°32' E 008°35'0 0.0
2014-Oct-27 18:31N 53°32' E 008°35'0 0.0
2014-Oct-27 17:31N 53°32' E 008°35'0 0.0
2014-Oct-27 16:31N 53°32' E 008°35'0 0.5
2014-Oct-27 15:33N 53°32' E 008°35'0 0.0
2014-Oct-27 14:28N 53°32' E 008°35'0 0.0
2014-Oct-27 13:28N 53°32' E 008°35'0 0.0
2014-Oct-27 12:31N 53°32' E 008°35'0 0.0
2014-Oct-27 11:31N 53°32' E 008°35'0 0.0
2014-Oct-27 10:31N 53°32' E 008°35'0 0.0
2014-Oct-27 09:31N 53°32' E 008°35'0 0.0
2014-Oct-27 08:31N 53°32' E 008°35'0 0.0
2014-Oct-27 07:31N 53°32' E 008°35'0 0.0
2014-Oct-27 06:28N 53°32' E 008°35'0 0.0
2014-Oct-27 05:31N 53°32' E 008°35'0 0.0
2014-Oct-27 04:31N 53°32' E 008°35'0 0.0
2014-Oct-27 03:31N 53°32' E 008°35'0 0.0
2014-Oct-27 02:31N 53°32' E 008°35'0 0.0
2014-Oct-27 01:31N 53°32' E 008°35'0 0.0
2014-Oct-27 00:31N 53°32' E 008°35'0 0.0
2014-Oct-26 23:31N 53°32' E 008°35'0 0.0
2014-Oct-26 22:31N 53°32' E 008°35'0 0.0
2014-Oct-26 21:31N 53°32' E 008°35'0 0.0
2014-Oct-26 20:31N 53°32' E 008°35'0 0.0
2014-Oct-26 19:31N 53°32' E 008°35'0 0.0
2014-Oct-26 18:31N 53°32' E 008°35'0 0.0
2014-Oct-26 17:31N 53°32' E 008°35'0 0.0
2014-Oct-26 16:31N 53°32' E 008°35'0 0.0
2014-Oct-26 15:33N 53°32' E 008°35'1 0.9
2014-Oct-26 14:34N 53°32' E 008°34'4 4.5
2014-Oct-26 13:33N 53°36' E 008°30'7 7.4
2014-Oct-26 12:33N 53°41' E 008°21'1111.5
2014-Oct-26 11:33N 53°49' E 008°06'6 5.5
2014-Oct-26 10:33N 53°49' E 007°57'6 5.7
2014-Oct-26 09:31N 53°45' E 008°04'0 0.0
2014-Oct-26 08:31N 53°45' E 008°04'0 0.1
2014-Oct-26 07:31N 53°45' E 008°05'0 0.1
2014-Oct-26 06:31N 53°45' E 008°04'0 0.0
2014-Oct-26 05:31N 53°45' E 008°04'0 0.0
2014-Oct-26 04:28N 53°45' E 008°04'0 0.0
2014-Oct-26 03:31N 53°45' E 008°04'0 0.0
2014-Oct-26 02:31N 53°45' E 008°04'0 0.0
2014-Oct-26 01:31N 53°45' E 008°04'0 0.1
2014-Oct-26 00:31N 53°45' E 008°04'4 3.9
2014-Oct-25 23:34N 53°41' E 008°05'4 4.2
2014-Oct-25 22:32N 53°37' E 008°08'0 0.0
2014-Oct-25 21:32N 53°37' E 008°08'0 0.0
2014-Oct-25 20:32N 53°37' E 008°08'0 0.0
2014-Oct-25 19:32N 53°37' E 008°08'0 0.0
2014-Oct-25 18:32N 53°37' E 008°08'0 0.0
2014-Oct-25 17:32N 53°37' E 008°08'0 0.0
2014-Oct-25 16:32N 53°37' E 008°08'0 0.0
2014-Oct-25 15:26N 53°37' E 008°08'0 0.0
2014-Oct-25 14:32N 53°37' E 008°08'0 0.0
2014-Oct-25 13:29N 53°37' E 008°08'0 0.0
2014-Oct-25 12:33N 53°37' E 008°08'1 1.0
2014-Oct-25 11:33N 53°38' E 008°08'6 5.7
2014-Oct-25 10:33N 53°43' E 008°04'1111.2
2014-Oct-25 09:33N 53°53' E 007°55'9 8.9
2014-Oct-25 08:33N 54°00' E 008°03'9 8.7
2014-Oct-25 07:33N 54°00' E 008°18'1111.4
2014-Oct-25 06:33N 53°58' E 008°37'7 6.7
2014-Oct-25 05:33N 53°52' E 008°43'1 0.7
2014-Oct-25 04:31N 53°51' E 008°43'0 0.0
2014-Oct-25 03:31N 53°51' E 008°43'0 0.0
2014-Oct-25 02:31N 53°51' E 008°43'0 0.0
2014-Oct-25 01:31N 53°51' E 008°43'0 0.0
2014-Oct-25 00:31N 53°51' E 008°43'0 0.0
2014-Oct-24 23:28N 53°51' E 008°43'0 0.0
2014-Oct-24 22:31N 53°51' E 008°43'0 0.0
2014-Oct-24 21:31N 53°51' E 008°43'0 0.0
2014-Oct-24 20:28N 53°51' E 008°43'0 0.0
2014-Oct-24 19:28N 53°51' E 008°43'0 0.0
2014-Oct-24 18:31N 53°51' E 008°43'0 0.0
2014-Oct-24 17:31N 53°51' E 008°43'0 0.0
2014-Oct-24 16:31N 53°51' E 008°43'0 0.0
2014-Oct-24 15:28N 53°51' E 008°43'0 0.0
2014-Oct-24 14:31N 53°51' E 008°43'0 0.0
2014-Oct-24 13:31N 53°51' E 008°43'0 0.0
2014-Oct-24 12:31N 53°51' E 008°43'0 0.0
2014-Oct-24 11:31N 53°51' E 008°43'0 0.0
2014-Oct-24 10:31N 53°51' E 008°43'0 0.0
2014-Oct-24 09:31N 53°51' E 008°43'0 0.0
2014-Oct-24 08:28N 53°51' E 008°43'0 0.0
2014-Oct-24 07:31N 53°51' E 008°43'0 0.0
2014-Oct-24 06:31N 53°51' E 008°43'0 0.0
2014-Oct-24 05:31N 53°51' E 008°43'0 0.0
2014-Oct-24 04:31N 53°51' E 008°43'0 0.0
2014-Oct-24 03:31N 53°51' E 008°43'0 0.0
2014-Oct-24 02:31N 53°51' E 008°43'0 0.0
2014-Oct-24 01:28N 53°51' E 008°43'0 0.0
2014-Oct-24 00:28N 53°51' E 008°43'0 0.0
2014-Oct-23 23:31N 53°51' E 008°43'0 0.0
2014-Oct-23 22:28N 53°51' E 008°43'0 0.0
2014-Oct-23 21:31N 53°51' E 008°43'0 0.0
2014-Oct-23 20:31N 53°51' E 008°43'0 0.0
2014-Oct-23 19:31N 53°51' E 008°43'0 0.5
2014-Oct-23 18:32N 53°52' E 008°43'0 0.0
2014-Oct-23 17:32N 53°52' E 008°43'0 0.0
2014-Oct-23 16:32N 53°52' E 008°43'0 0.0
2014-Oct-23 15:29N 53°52' E 008°43'0 0.0
2014-Oct-23 14:29N 53°52' E 008°43'0 0.0
2014-Oct-23 13:32N 53°52' E 008°43'0 0.0
2014-Oct-23 12:32N 53°52' E 008°43'1 0.5
2014-Oct-23 11:29N 53°52' E 008°43'0 0.0
2014-Oct-23 10:32N 53°52' E 008°43'0 0.0
2014-Oct-23 09:29N 53°52' E 008°43'0 0.0
2014-Oct-23 08:26N 53°52' E 008°43'0 0.4
2014-Oct-23 07:33N 53°53' E 008°43'5 4.7
2014-Oct-23 06:34N 53°51' E 008°50'7 6.5
2014-Oct-23 05:33N 53°52' E 009°01'0 0.0
2014-Oct-23 04:33N 53°52' E 009°01'0 0.0
2014-Oct-23 03:33N 53°52' E 009°01'0 0.1
2014-Oct-23 02:33N 53°52' E 009°01'0 0.1
2014-Oct-23 01:33N 53°52' E 009°01'0 0.1
2014-Oct-23 00:33N 53°52' E 009°01'0 0.0
2014-Oct-22 23:33N 53°52' E 009°01'5 5.1
2014-Oct-22 22:33N 53°53' E 009°09'18 8.8
2014-Oct-22 20:32N 53°40' E 009°31'1111.1
2014-Oct-22 19:33N 53°34' E 009°45'8 7.4
2014-Oct-22 18:28N 53°30' E 009°57'0 0.0
2014-Oct-22 17:28N 53°30' E 009°57'0 0.0
2014-Oct-22 16:28N 53°30' E 009°57'0 0.0
2014-Oct-22 15:31N 53°30' E 009°57'0 0.0
2014-Oct-22 14:31N 53°30' E 009°57'0 0.0
2014-Oct-22 13:31N 53°30' E 009°57'0 0.0
2014-Oct-22 12:31N 53°30' E 009°57'2 2.5
2014-Oct-22 11:34N 53°32' E 009°56'1010.1
2014-Oct-22 10:33N 53°34' E 009°39'1111.0
2014-Oct-22 09:32N 53°43' E 009°28'6 5.7
2014-Oct-22 08:30N 53°48' E 009°23'1010.6
2014-Oct-22 07:33N 53°39' E 009°31'1111.1
2014-Oct-22 06:33N 53°34' E 009°47'7 6.9
2014-Oct-22 05:33N 53°30' E 009°57'0 0.0
2014-Oct-22 04:32N 53°30' E 009°57'0 0.0
2014-Oct-22 03:33N 53°30' E 009°57'0 0.0
2014-Oct-22 02:32N 53°30' E 009°57'0 0.4
2014-Oct-22 01:29N 53°30' E 009°58'0 0.0
2014-Oct-22 00:29N 53°30' E 009°58'0 0.0
2014-Oct-21 23:29N 53°30' E 009°58'0 0.0
2014-Oct-21 22:29N 53°30' E 009°58'0 0.0
2014-Oct-21 21:29N 53°30' E 009°58'0 0.0
2014-Oct-21 20:29N 53°30' E 009°58'0 0.0
2014-Oct-21 19:32N 53°30' E 009°58'1 0.8
2014-Oct-21 18:33N 53°31' E 009°57'9 8.6
2014-Oct-21 17:33N 53°34' E 009°43'9 8.6
2014-Oct-21 16:33N 53°39' E 009°31'8 8.0
2014-Oct-21 15:33N 53°45' E 009°24'8 7.7
2014-Oct-21 14:33N 53°52' E 009°17'9 8.6
2014-Oct-21 13:33N 53°52' E 009°02'10 9.7
2014-Oct-21 12:33N 53°51' E 008°46'2 2.1
2014-Oct-21 11:32N 53°52' E 008°43'0 0.0
2014-Oct-21 10:32N 53°52' E 008°43'0 0.0
2014-Oct-21 09:29N 53°52' E 008°43'0 0.0
2014-Oct-21 08:32N 53°52' E 008°43'0 0.0
2014-Oct-21 07:32N 53°52' E 008°43'0 0.0
2014-Oct-21 06:32N 53°52' E 008°43'  

Dump ship's entire track history